createdAt,value
2017-07-11T00:00:04.478Z,989.93
2017-07-11T00:01:04.513Z,989.9
2017-07-11T00:02:04.540Z,989.95
2017-07-11T00:03:04.567Z,989.92
2017-07-11T00:04:04.596Z,989.89
2017-07-11T00:05:04.620Z,989.9
2017-07-11T00:06:04.653Z,989.93
2017-07-11T00:07:04.685Z,989.96
2017-07-11T00:08:04.715Z,989.96
2017-07-11T00:09:04.741Z,989.99
2017-07-11T00:10:04.772Z,989.96
2017-07-11T00:11:04.805Z,990.02
2017-07-11T00:12:04.833Z,989.99
2017-07-11T00:13:04.867Z,989.97
2017-07-11T00:14:04.892Z,989.93
2017-07-11T00:15:04.915Z,989.91
2017-07-11T00:16:04.953Z,989.92
2017-07-11T00:17:04.982Z,989.93
2017-07-11T00:18:05.011Z,989.92
2017-07-11T00:19:05.038Z,989.89
2017-07-11T00:20:05.068Z,989.84
2017-07-11T00:21:05.101Z,989.88
2017-07-11T00:22:05.130Z,989.89
2017-07-11T00:23:05.159Z,989.9
2017-07-11T00:24:05.186Z,989.93
2017-07-11T00:25:05.221Z,989.9
2017-07-11T00:26:05.249Z,989.91
2017-07-11T00:27:05.278Z,989.94
2017-07-11T00:28:05.309Z,989.93
2017-07-11T00:29:05.336Z,989.94
2017-07-11T00:30:05.364Z,989.9
2017-07-11T00:31:05.398Z,989.91
2017-07-11T00:32:05.427Z,989.93
2017-07-11T00:33:05.454Z,989.93
2017-07-11T00:34:05.481Z,989.98
2017-07-11T00:35:05.513Z,989.98
2017-07-11T00:36:05.541Z,989.95
2017-07-11T00:37:05.629Z,990
2017-07-11T00:38:05.600Z,990.01
2017-07-11T00:39:05.633Z,990.01
2017-07-11T00:40:05.664Z,989.99
2017-07-11T00:41:05.694Z,990
2017-07-11T00:42:05.715Z,990.01
2017-07-11T00:43:05.748Z,990.05
2017-07-11T00:44:05.777Z,990.01
2017-07-11T00:45:06.114Z,990.02
2017-07-11T00:46:05.841Z,990.01
2017-07-11T00:47:05.871Z,990
2017-07-11T00:48:05.900Z,990.01
2017-07-11T00:49:05.928Z,989.99
2017-07-11T00:50:06.210Z,989.96
2017-07-11T00:51:05.990Z,989.94
2017-07-11T00:52:06.015Z,989.96
2017-07-11T00:53:06.047Z,989.99
2017-07-11T00:54:06.076Z,989.98
2017-07-11T00:55:06.357Z,989.98
2017-07-11T00:56:06.140Z,990
2017-07-11T00:57:06.166Z,989.98
2017-07-11T00:58:06.196Z,989.98
2017-07-11T00:59:06.226Z,989.99
2017-07-11T01:00:06.254Z,989.94
2017-07-11T01:01:06.287Z,989.95
2017-07-11T01:02:06.311Z,989.93
2017-07-11T01:03:06.345Z,989.87
2017-07-11T01:04:06.373Z,989.86
2017-07-11T01:05:06.405Z,989.91
2017-07-11T01:06:06.435Z,989.85
2017-07-11T01:07:06.463Z,989.82
2017-07-11T01:08:06.492Z,989.78
2017-07-11T01:09:06.520Z,989.8
2017-07-11T01:10:06.546Z,989.79
2017-07-11T01:11:06.582Z,989.84
2017-07-11T01:12:06.612Z,989.77
2017-07-11T01:13:06.639Z,989.84
2017-07-11T01:14:06.669Z,989.81
2017-07-11T01:15:06.694Z,989.85
2017-07-11T01:16:06.726Z,989.82
2017-07-11T01:17:06.761Z,989.82
2017-07-11T01:18:06.791Z,989.86
2017-07-11T01:19:06.818Z,989.85
2017-07-11T01:20:06.846Z,989.85
2017-07-11T01:21:06.873Z,989.82
2017-07-11T01:22:06.908Z,989.78
2017-07-11T01:23:06.936Z,989.81
2017-07-11T01:24:06.965Z,989.79
2017-07-11T01:25:06.994Z,989.77
2017-07-11T01:26:07.026Z,989.76
2017-07-11T01:27:07.056Z,989.76
2017-07-11T01:28:07.084Z,989.74
2017-07-11T01:29:07.113Z,989.75
2017-07-11T01:30:07.142Z,989.77
2017-07-11T01:31:07.178Z,989.75
2017-07-11T01:32:07.203Z,989.76
2017-07-11T01:33:07.232Z,989.73
2017-07-11T01:34:07.262Z,989.75
2017-07-11T01:35:07.290Z,989.77
2017-07-11T01:36:07.319Z,989.8
2017-07-11T01:37:07.353Z,989.84
2017-07-11T01:38:07.381Z,989.88
2017-07-11T01:39:07.410Z,989.85
2017-07-11T01:40:07.439Z,989.87
2017-07-11T01:41:07.467Z,989.91
2017-07-11T01:42:07.500Z,989.89
2017-07-11T01:43:07.530Z,989.87
2017-07-11T01:44:07.557Z,989.85
2017-07-11T01:45:07.587Z,989.91
2017-07-11T01:46:07.616Z,989.88
2017-07-11T01:47:07.641Z,989.9
2017-07-11T01:48:07.677Z,989.87
2017-07-11T01:49:07.708Z,989.85
2017-07-11T01:50:07.735Z,989.86
2017-07-11T01:51:07.764Z,989.88
2017-07-11T01:52:07.792Z,989.89
2017-07-11T01:53:07.826Z,989.86
2017-07-11T01:54:07.854Z,989.85
2017-07-11T01:55:07.881Z,989.85
2017-07-11T01:56:07.908Z,989.83
2017-07-11T01:57:07.940Z,989.81
2017-07-11T01:58:07.970Z,989.84
2017-07-11T01:59:08.002Z,989.85
2017-07-11T02:00:08.031Z,989.83
2017-07-11T02:01:08.060Z,989.83
2017-07-11T02:02:08.089Z,989.85
2017-07-11T02:03:08.117Z,989.82
2017-07-11T02:04:08.151Z,989.83
2017-07-11T02:05:08.175Z,989.86
2017-07-11T02:06:08.208Z,989.86
2017-07-11T02:07:08.235Z,989.92
2017-07-11T02:08:08.266Z,989.95
2017-07-11T02:09:08.290Z,989.92
2017-07-11T02:10:08.332Z,989.92
2017-07-11T02:11:08.356Z,989.92
2017-07-11T02:12:08.385Z,989.95
2017-07-11T02:13:08.413Z,989.98
2017-07-11T02:14:08.442Z,989.97
2017-07-11T02:15:08.471Z,990
2017-07-11T02:16:08.500Z,989.97
2017-07-11T02:17:08.533Z,989.95
2017-07-11T02:18:08.560Z,989.96
2017-07-11T02:19:08.594Z,989.96
2017-07-11T02:20:08.620Z,989.95
2017-07-11T02:21:08.649Z,989.98
2017-07-11T02:22:08.681Z,990.04
2017-07-11T02:23:08.709Z,990.03
2017-07-11T02:24:08.739Z,990.01
2017-07-11T02:25:08.768Z,990.02
2017-07-11T02:26:09.096Z,990.01
2017-07-11T02:27:08.824Z,989.97
2017-07-11T02:28:08.853Z,990
2017-07-11T02:29:08.886Z,989.97
2017-07-11T02:30:08.914Z,989.98
2017-07-11T02:31:09.195Z,989.98
2017-07-11T02:32:08.973Z,989.96
2017-07-11T02:33:08.999Z,989.98
2017-07-11T02:34:09.031Z,989.99
2017-07-11T02:35:09.064Z,990.04
2017-07-11T02:36:09.393Z,990.02
2017-07-11T02:37:09.121Z,990.03
2017-07-11T02:38:09.150Z,990.06
2017-07-11T02:39:09.178Z,990.1
2017-07-11T02:40:09.211Z,990.08
2017-07-11T02:41:09.242Z,990.09
2017-07-11T02:42:09.270Z,990.08
2017-07-11T02:43:09.298Z,990.05
2017-07-11T02:44:09.328Z,990.09
2017-07-11T02:45:09.360Z,990.14
2017-07-11T02:46:09.385Z,990.18
2017-07-11T02:47:09.417Z,990.16
2017-07-11T02:48:09.446Z,990.18
2017-07-11T02:49:09.476Z,990.18
2017-07-11T02:50:09.505Z,990.24
2017-07-11T02:51:09.533Z,990.26
2017-07-11T02:52:09.560Z,990.29
2017-07-11T02:53:09.595Z,990.33
2017-07-11T02:54:09.623Z,990.32
2017-07-11T02:55:09.652Z,990.31
2017-07-11T02:56:09.677Z,990.33
2017-07-11T02:57:09.710Z,990.34
2017-07-11T02:58:09.738Z,990.38
2017-07-11T02:59:09.771Z,990.36
2017-07-11T03:00:09.801Z,990.39
2017-07-11T03:01:09.829Z,990.39
2017-07-11T03:02:09.858Z,990.36
2017-07-11T03:03:09.888Z,990.43
2017-07-11T03:04:09.916Z,990.43
2017-07-11T03:05:09.945Z,990.44
2017-07-11T03:06:09.978Z,990.48
2017-07-11T03:07:10.007Z,990.45
2017-07-11T03:08:10.036Z,990.48
2017-07-11T03:09:10.065Z,990.52
2017-07-11T03:10:10.093Z,990.48
2017-07-11T03:11:10.122Z,990.53
2017-07-11T03:12:10.155Z,990.51
2017-07-11T03:13:10.185Z,990.53
2017-07-11T03:14:10.214Z,990.54
2017-07-11T03:15:10.237Z,990.58
2017-07-11T03:16:10.270Z,990.57
2017-07-11T03:17:10.299Z,990.58
2017-07-11T03:18:10.328Z,990.6
2017-07-11T03:19:10.357Z,990.62
2017-07-11T03:20:10.389Z,990.58
2017-07-11T03:21:10.418Z,990.63
2017-07-11T03:22:10.447Z,990.65
2017-07-11T03:23:10.477Z,990.66
2017-07-11T03:24:10.504Z,990.62
2017-07-11T03:25:10.531Z,990.63
2017-07-11T03:26:10.566Z,990.6
2017-07-11T03:27:10.594Z,990.59
2017-07-11T03:28:10.625Z,990.57
2017-07-11T03:29:10.653Z,990.57
2017-07-11T03:30:10.681Z,990.58
2017-07-11T03:31:10.710Z,990.61
2017-07-11T03:32:10.739Z,990.63
2017-07-11T03:33:10.772Z,990.62
2017-07-11T03:34:10.801Z,990.58
2017-07-11T03:35:10.829Z,990.61
2017-07-11T03:36:10.858Z,990.62
2017-07-11T03:37:10.887Z,990.59
2017-07-11T03:38:10.913Z,990.59
2017-07-11T03:39:10.948Z,990.61
2017-07-11T03:40:10.974Z,990.67
2017-07-11T03:41:11.003Z,990.66
2017-07-11T03:42:11.287Z,990.68
2017-07-11T03:43:11.064Z,990.68
2017-07-11T03:44:11.088Z,990.72
2017-07-11T03:45:11.123Z,990.79
2017-07-11T03:46:11.155Z,990.81
2017-07-11T03:47:11.431Z,990.81
2017-07-11T03:48:11.212Z,990.83
2017-07-11T03:49:11.241Z,990.82
2017-07-11T03:50:11.267Z,990.87
2017-07-11T03:51:11.296Z,990.88
2017-07-11T03:52:11.627Z,990.89
2017-07-11T03:53:11.356Z,990.91
2017-07-11T03:54:11.381Z,990.92
2017-07-11T03:55:11.419Z,990.89
2017-07-11T03:56:11.442Z,990.9
2017-07-11T03:57:11.726Z,990.88
2017-07-11T03:58:11.500Z,990.88
2017-07-11T03:59:11.534Z,990.89
2017-07-11T04:00:11.563Z,990.9
2017-07-11T04:01:11.594Z,990.94
2017-07-11T04:02:11.872Z,990.96
2017-07-11T04:03:11.653Z,990.95
2017-07-11T04:04:11.680Z,990.98
2017-07-11T04:05:11.710Z,990.95
2017-07-11T04:06:11.739Z,990.94
2017-07-11T04:07:12.068Z,990.97
2017-07-11T04:08:11.797Z,990.95
2017-07-11T04:09:11.826Z,990.97
2017-07-11T04:10:11.859Z,990.99
2017-07-11T04:11:11.888Z,991.02
2017-07-11T04:12:12.163Z,991.01
2017-07-11T04:13:11.944Z,991.01
2017-07-11T04:14:11.974Z,991.03
2017-07-11T04:15:12.002Z,991.01
2017-07-11T04:16:12.036Z,991.01
2017-07-11T04:17:12.312Z,991.01
2017-07-11T04:18:12.094Z,990.97
2017-07-11T04:19:12.122Z,990.97
2017-07-11T04:20:12.151Z,991
2017-07-11T04:21:12.175Z,991.02
2017-07-11T04:22:12.208Z,991
2017-07-11T04:23:12.237Z,991.05
2017-07-11T04:24:12.266Z,991.02
2017-07-11T04:25:12.294Z,991.04
2017-07-11T04:26:12.328Z,991.08
2017-07-11T04:27:12.357Z,991.12
2017-07-11T04:28:12.382Z,991.13
2017-07-11T04:29:12.415Z,991.12
2017-07-11T04:30:12.443Z,991.15
2017-07-11T04:31:12.472Z,991.14
2017-07-11T04:32:12.501Z,991.12
2017-07-11T04:33:12.530Z,991.14
2017-07-11T04:34:12.562Z,991.19
2017-07-11T04:35:12.592Z,991.16
2017-07-11T04:36:12.620Z,991.21
2017-07-11T04:37:12.649Z,991.22
2017-07-11T04:38:12.678Z,991.18
2017-07-11T04:39:12.708Z,991.27
2017-07-11T04:40:12.740Z,991.26
2017-07-11T04:41:12.767Z,991.29
2017-07-11T04:42:12.793Z,991.35
2017-07-11T04:43:12.826Z,991.35
2017-07-11T04:44:12.857Z,991.32
2017-07-11T04:45:12.880Z,991.33
2017-07-11T04:46:12.907Z,991.31
2017-07-11T04:47:12.937Z,991.34
2017-07-11T04:48:12.974Z,991.35
2017-07-11T04:49:12.998Z,991.38
2017-07-11T04:50:13.032Z,991.38
2017-07-11T04:51:13.060Z,991.45
2017-07-11T04:52:13.090Z,991.43
2017-07-11T04:53:13.118Z,991.41
2017-07-11T04:54:13.147Z,991.41
2017-07-11T04:55:13.176Z,991.42
2017-07-11T04:56:13.201Z,991.43
2017-07-11T04:57:13.237Z,991.42
2017-07-11T04:58:13.266Z,991.43
2017-07-11T04:59:13.300Z,991.44
2017-07-11T05:00:13.324Z,991.43
2017-07-11T05:01:13.354Z,991.42
2017-07-11T05:02:13.382Z,991.44
2017-07-11T05:03:13.411Z,991.46
2017-07-11T05:04:13.435Z,991.45
2017-07-11T05:05:13.471Z,991.51
2017-07-11T05:06:13.500Z,991.55
2017-07-11T05:07:13.530Z,991.54
2017-07-11T05:08:13.558Z,991.55
2017-07-11T05:09:13.585Z,991.55
2017-07-11T05:10:13.616Z,991.54
2017-07-11T05:11:13.645Z,991.53
2017-07-11T05:12:13.674Z,991.52
2017-07-11T05:13:13.707Z,991.54
2017-07-11T05:14:13.736Z,991.52
2017-07-11T05:15:13.764Z,991.5
2017-07-11T05:16:13.789Z,991.51
2017-07-11T05:17:13.822Z,991.43
2017-07-11T05:18:13.851Z,991.45
2017-07-11T05:19:13.880Z,991.42
2017-07-11T05:20:13.909Z,991.41
2017-07-11T05:21:13.941Z,991.46
2017-07-11T05:22:13.966Z,991.45
2017-07-11T05:23:13.998Z,991.44
2017-07-11T05:24:14.023Z,991.48
2017-07-11T05:25:14.057Z,991.48
2017-07-11T05:26:14.090Z,991.46
2017-07-11T05:27:14.114Z,991.52
2017-07-11T05:28:14.150Z,991.5
2017-07-11T05:29:14.172Z,991.52
2017-07-11T05:30:14.202Z,991.51
2017-07-11T05:31:14.233Z,991.55
2017-07-11T05:32:14.262Z,991.62
2017-07-11T05:33:14.288Z,991.57
2017-07-11T05:34:14.321Z,991.58
2017-07-11T05:35:14.349Z,991.57
2017-07-11T05:36:14.378Z,991.59
2017-07-11T05:37:14.406Z,991.59
2017-07-11T05:38:14.439Z,991.57
2017-07-11T05:39:14.468Z,991.57
2017-07-11T05:40:14.497Z,991.54
2017-07-11T05:41:14.521Z,991.6
2017-07-11T05:42:14.556Z,991.62
2017-07-11T05:43:14.584Z,991.62
2017-07-11T05:44:14.614Z,991.64
2017-07-11T05:45:14.644Z,991.63
2017-07-11T05:46:14.675Z,991.65
2017-07-11T05:47:14.703Z,991.64
2017-07-11T05:48:14.732Z,991.67
2017-07-11T05:49:14.757Z,991.64
2017-07-11T05:50:14.785Z,991.66
2017-07-11T05:51:14.817Z,991.65
2017-07-11T05:52:14.843Z,991.66
2017-07-11T05:53:14.875Z,991.66
2017-07-11T05:54:14.905Z,991.65
2017-07-11T05:55:14.939Z,991.7
2017-07-11T05:56:14.968Z,991.73
2017-07-11T05:57:14.996Z,991.67
2017-07-11T05:58:15.026Z,991.68
2017-07-11T05:59:15.049Z,991.72
2017-07-11T06:00:15.082Z,991.78
2017-07-11T06:01:15.113Z,991.86
2017-07-11T06:02:15.144Z,991.88
2017-07-11T06:03:15.173Z,991.86
2017-07-11T06:04:15.203Z,991.85
2017-07-11T06:05:15.235Z,991.85
2017-07-11T06:06:15.260Z,991.84
2017-07-11T06:07:15.288Z,991.86
2017-07-11T06:08:15.321Z,991.88
2017-07-11T06:09:15.352Z,991.86
2017-07-11T06:10:15.383Z,991.86
2017-07-11T06:11:15.407Z,991.9
2017-07-11T06:12:15.441Z,991.9
2017-07-11T06:13:15.465Z,991.88
2017-07-11T06:14:15.498Z,991.9
2017-07-11T06:15:15.529Z,991.9
2017-07-11T06:16:15.559Z,991.9
2017-07-11T06:17:15.587Z,991.9
2017-07-11T06:18:15.614Z,991.91
2017-07-11T06:19:15.644Z,991.93
2017-07-11T06:20:15.672Z,991.92
2017-07-11T06:21:15.704Z,991.95
2017-07-11T06:22:15.732Z,991.93
2017-07-11T06:23:15.759Z,991.95
2017-07-11T06:24:15.791Z,991.92
2017-07-11T06:25:15.816Z,991.89
2017-07-11T06:26:15.849Z,991.92
2017-07-11T06:27:15.878Z,991.93
2017-07-11T06:28:15.910Z,991.92
2017-07-11T06:29:15.940Z,991.89
2017-07-11T06:30:15.964Z,991.91
2017-07-11T06:31:15.993Z,991.94
2017-07-11T06:32:16.022Z,991.94
2017-07-11T06:33:16.054Z,991.97
2017-07-11T06:34:16.087Z,992.01
2017-07-11T06:35:16.116Z,992.01
2017-07-11T06:36:16.141Z,992.01
2017-07-11T06:37:16.174Z,992
2017-07-11T06:38:16.498Z,992.04
2017-07-11T06:39:16.232Z,992.01
2017-07-11T06:40:16.261Z,992.04
2017-07-11T06:41:16.290Z,992.04
2017-07-11T06:42:16.318Z,992
2017-07-11T06:43:16.659Z,991.99
2017-07-11T06:44:16.380Z,991.99
2017-07-11T06:45:16.407Z,991.95
2017-07-11T06:46:16.438Z,991.94
2017-07-11T06:47:16.464Z,991.93
2017-07-11T06:48:16.749Z,991.96
2017-07-11T06:49:16.527Z,991.94
2017-07-11T06:50:16.557Z,991.97
2017-07-11T06:51:16.586Z,992.04
2017-07-11T06:52:16.615Z,992
2017-07-11T06:53:16.894Z,992.04
2017-07-11T06:54:16.670Z,992.07
2017-07-11T06:55:16.705Z,992.03
2017-07-11T06:56:16.728Z,992.05
2017-07-11T06:57:16.762Z,992.01
2017-07-11T06:58:17.043Z,992.05
2017-07-11T06:59:16.820Z,992.04
2017-07-11T07:00:16.853Z,992.06
2017-07-11T07:01:16.877Z,992.02
2017-07-11T07:02:16.911Z,991.99
2017-07-11T07:03:17.191Z,992.06
2017-07-11T07:04:16.967Z,992.03
2017-07-11T07:05:16.993Z,992.03
2017-07-11T07:06:17.025Z,991.99
2017-07-11T07:07:17.058Z,992.13
2017-07-11T07:08:17.388Z,992.07
2017-07-11T07:09:17.111Z,992.08
2017-07-11T07:10:17.145Z,992.09
2017-07-11T07:11:17.174Z,992.11
2017-07-11T07:12:17.203Z,992.12
2017-07-11T07:13:17.232Z,992.16
2017-07-11T07:14:17.265Z,992.18
2017-07-11T07:15:17.293Z,992.12
2017-07-11T07:16:17.322Z,992.14
2017-07-11T07:17:17.352Z,992.15
2017-07-11T07:18:17.380Z,992.13
2017-07-11T07:19:17.408Z,992.11
2017-07-11T07:20:17.441Z,992.12
2017-07-11T07:21:17.466Z,992.12
2017-07-11T07:22:17.500Z,992.13
2017-07-11T07:23:17.526Z,992.11
2017-07-11T07:24:17.552Z,992.11
2017-07-11T07:25:17.589Z,992.14
2017-07-11T07:26:17.618Z,992.12
2017-07-11T07:27:17.646Z,992.09
2017-07-11T07:28:17.674Z,992.12
2017-07-11T07:29:17.704Z,992.14
2017-07-11T07:30:17.729Z,992.14
2017-07-11T07:31:17.766Z,992.08
2017-07-11T07:32:17.793Z,992.06
2017-07-11T07:33:17.819Z,992.14
2017-07-11T07:34:17.852Z,992.11
2017-07-11T07:35:17.880Z,992.14
2017-07-11T07:36:17.911Z,992.17
2017-07-11T07:37:17.942Z,992.16
2017-07-11T07:38:17.972Z,992.16
2017-07-11T07:39:18.000Z,992.14
2017-07-11T07:40:18.030Z,992.12
2017-07-11T07:41:18.057Z,992.1
2017-07-11T07:42:18.087Z,992.12
2017-07-11T07:43:18.120Z,992.15
2017-07-11T07:44:18.149Z,992.14
2017-07-11T07:45:18.177Z,992.2
2017-07-11T07:46:18.213Z,992.2
2017-07-11T07:47:18.239Z,992.18
2017-07-11T07:48:18.269Z,992.19
2017-07-11T07:49:18.296Z,992.16
2017-07-11T07:50:18.326Z,992.21
2017-07-11T07:51:18.360Z,992.23
2017-07-11T07:52:18.388Z,992.23
2017-07-11T07:53:18.417Z,992.24
2017-07-11T07:54:18.446Z,992.28
2017-07-11T07:55:18.472Z,992.25
2017-07-11T07:56:18.504Z,992.28
2017-07-11T07:57:18.535Z,992.23
2017-07-11T07:58:18.565Z,992.26
2017-07-11T07:59:18.593Z,992.26
2017-07-11T08:00:18.622Z,992.29
2017-07-11T08:01:18.656Z,992.25
2017-07-11T08:02:18.684Z,992.26
2017-07-11T08:03:18.713Z,992.31
2017-07-11T08:04:18.742Z,992.29
2017-07-11T08:05:18.766Z,992.34
2017-07-11T08:06:18.798Z,992.34
2017-07-11T08:07:18.831Z,992.35
2017-07-11T08:08:18.861Z,992.34
2017-07-11T08:09:18.890Z,992.34
2017-07-11T08:10:18.918Z,992.41
2017-07-11T08:11:18.951Z,992.39
2017-07-11T08:12:18.979Z,992.39
2017-07-11T08:13:19.009Z,992.36
2017-07-11T08:14:19.038Z,992.33
2017-07-11T08:15:19.066Z,992.4
2017-07-11T08:16:19.099Z,992.36
2017-07-11T08:17:19.129Z,992.35
2017-07-11T08:18:19.157Z,992.29
2017-07-11T08:19:19.181Z,992.37
2017-07-11T08:20:19.218Z,992.27
2017-07-11T08:21:19.247Z,992.27
2017-07-11T08:22:19.271Z,992.26
2017-07-11T08:23:19.305Z,992.23
2017-07-11T08:24:19.338Z,992.31
2017-07-11T08:25:19.367Z,992.3
2017-07-11T08:26:19.395Z,992.33
2017-07-11T08:27:19.425Z,992.32
2017-07-11T08:28:19.449Z,992.33
2017-07-11T08:29:19.486Z,992.31
2017-07-11T08:30:19.514Z,992.32
2017-07-11T08:31:19.544Z,992.33
2017-07-11T08:32:19.574Z,992.3
2017-07-11T08:33:19.602Z,992.31
2017-07-11T08:34:19.633Z,992.36
2017-07-11T08:35:19.663Z,992.33
2017-07-11T08:36:19.692Z,992.3
2017-07-11T08:37:19.721Z,992.29
2017-07-11T08:38:19.754Z,992.34
2017-07-11T08:39:20.081Z,992.33
2017-07-11T08:40:19.811Z,992.27
2017-07-11T08:41:19.840Z,992.3
2017-07-11T08:42:19.873Z,992.37
2017-07-11T08:43:19.897Z,992.37
2017-07-11T08:44:20.181Z,992.35
2017-07-11T08:45:19.959Z,992.36
2017-07-11T08:46:19.988Z,992.36
2017-07-11T08:47:20.022Z,992.36
2017-07-11T08:48:20.050Z,992.35
2017-07-11T08:49:20.330Z,992.31
2017-07-11T08:50:20.108Z,992.34
2017-07-11T08:51:20.140Z,992.37
2017-07-11T08:52:20.169Z,992.35
2017-07-11T08:53:20.197Z,992.39
2017-07-11T08:54:20.222Z,992.38
2017-07-11T08:55:20.250Z,992.39
2017-07-11T08:56:20.288Z,992.36
2017-07-11T08:57:20.317Z,992.4
2017-07-11T08:58:20.345Z,992.35
2017-07-11T08:59:20.379Z,992.35
2017-07-11T09:00:20.408Z,992.37
2017-07-11T09:01:20.438Z,992.36
2017-07-11T09:02:20.466Z,992.36
2017-07-11T09:03:20.495Z,992.35
2017-07-11T09:04:20.525Z,992.38
2017-07-11T09:05:20.555Z,992.37
2017-07-11T09:06:20.585Z,992.42
2017-07-11T09:07:20.613Z,992.39
2017-07-11T09:08:20.646Z,992.35
2017-07-11T09:09:20.674Z,992.36
2017-07-11T09:10:20.703Z,992.4
2017-07-11T09:11:20.737Z,992.42
2017-07-11T09:12:20.762Z,992.46
2017-07-11T09:13:20.794Z,992.4
2017-07-11T09:14:20.822Z,992.39
2017-07-11T09:15:20.857Z,992.42
2017-07-11T09:16:20.885Z,992.39
2017-07-11T09:17:20.916Z,992.39
2017-07-11T09:18:20.946Z,992.4
2017-07-11T09:19:20.975Z,992.43
2017-07-11T09:20:21.003Z,992.44
2017-07-11T09:21:21.032Z,992.43
2017-07-11T09:22:21.061Z,992.43
2017-07-11T09:23:21.094Z,992.38
2017-07-11T09:24:21.124Z,992.42
2017-07-11T09:25:21.156Z,992.43
2017-07-11T09:26:21.185Z,992.41
2017-07-11T09:27:21.214Z,992.42
2017-07-11T09:28:21.243Z,992.46
2017-07-11T09:29:21.276Z,992.45
2017-07-11T09:30:21.302Z,992.48
2017-07-11T09:31:21.333Z,992.45
2017-07-11T09:32:21.361Z,992.43
2017-07-11T09:33:21.395Z,992.38
2017-07-11T09:34:21.423Z,992.38
2017-07-11T09:35:21.452Z,992.3
2017-07-11T09:36:21.477Z,992.31
2017-07-11T09:37:21.513Z,992.37
2017-07-11T09:38:21.542Z,992.34
2017-07-11T09:39:21.571Z,992.38
2017-07-11T09:40:21.600Z,992.42
2017-07-11T09:41:21.633Z,992.42
2017-07-11T09:42:21.654Z,992.45
2017-07-11T09:43:21.692Z,992.47
2017-07-11T09:44:21.726Z,992.43
2017-07-11T09:45:21.748Z,992.41
2017-07-11T09:46:21.776Z,992.42
2017-07-11T09:47:21.814Z,992.44
2017-07-11T09:48:21.842Z,992.5
2017-07-11T09:49:21.871Z,992.45
2017-07-11T09:50:21.900Z,992.47
2017-07-11T09:51:21.933Z,992.48
2017-07-11T09:52:21.963Z,992.46
2017-07-11T09:53:21.992Z,992.43
2017-07-11T09:54:22.025Z,992.44
2017-07-11T09:55:22.054Z,992.46
2017-07-11T09:56:22.082Z,992.46
2017-07-11T09:57:22.111Z,992.44
2017-07-11T09:58:22.144Z,992.49
2017-07-11T09:59:22.169Z,992.42
2017-07-11T10:00:22.200Z,992.49
2017-07-11T10:01:22.234Z,992.48
2017-07-11T10:02:22.263Z,992.47
2017-07-11T10:03:22.288Z,992.47
2017-07-11T10:04:22.321Z,992.39
2017-07-11T10:05:22.351Z,992.47
2017-07-11T10:06:22.384Z,992.46
2017-07-11T10:07:22.410Z,992.5
2017-07-11T10:08:22.444Z,992.5
2017-07-11T10:09:22.528Z,992.5
2017-07-11T10:10:22.501Z,992.55
2017-07-11T10:11:22.533Z,992.53
2017-07-11T10:12:22.562Z,992.51
2017-07-11T10:13:22.591Z,992.46
2017-07-11T10:14:22.620Z,992.5
2017-07-11T10:15:22.649Z,992.5
2017-07-11T10:16:22.685Z,992.52
2017-07-11T10:17:22.713Z,992.46
2017-07-11T10:18:22.744Z,992.48
2017-07-11T10:19:22.772Z,992.41
2017-07-11T10:20:22.802Z,992.41
2017-07-11T10:21:22.839Z,992.44
2017-07-11T10:22:22.858Z,992.43
2017-07-11T10:23:22.892Z,992.46
2017-07-11T10:24:22.928Z,992.42
2017-07-11T10:25:23.253Z,992.42
2017-07-11T10:26:22.983Z,992.41
2017-07-11T10:27:23.010Z,992.44
2017-07-11T10:28:23.044Z,992.42
2017-07-11T10:29:23.072Z,992.41
2017-07-11T10:30:23.354Z,992.44
2017-07-11T10:31:23.134Z,992.41
2017-07-11T10:32:23.163Z,992.39
2017-07-11T10:33:23.187Z,992.46
2017-07-11T10:34:23.221Z,992.42
2017-07-11T10:35:23.253Z,992.39
2017-07-11T10:36:23.283Z,992.38
2017-07-11T10:37:23.311Z,992.38
2017-07-11T10:38:23.343Z,992.33
2017-07-11T10:39:23.373Z,992.34
2017-07-11T10:40:23.401Z,992.29
2017-07-11T10:41:23.436Z,992.3
2017-07-11T10:42:23.460Z,992.27
2017-07-11T10:43:23.493Z,992.29
2017-07-11T10:44:23.525Z,992.29
2017-07-11T10:45:23.554Z,992.31
2017-07-11T10:46:23.588Z,992.3
2017-07-11T10:47:23.615Z,992.28
2017-07-11T10:48:23.645Z,992.26
2017-07-11T10:49:23.673Z,992.21
2017-07-11T10:50:23.707Z,992.18
2017-07-11T10:51:23.735Z,992.15
2017-07-11T10:52:23.763Z,992.18
2017-07-11T10:53:23.797Z,992.19
2017-07-11T10:54:23.824Z,992.22
2017-07-11T10:55:23.854Z,992.19
2017-07-11T10:56:23.887Z,992.14
2017-07-11T10:57:23.915Z,992.15
2017-07-11T10:58:23.944Z,992.21
2017-07-11T10:59:23.978Z,992.19
2017-07-11T11:00:24.006Z,992.18
2017-07-11T11:01:24.039Z,992.17
2017-07-11T11:02:24.063Z,992.14
2017-07-11T11:03:24.097Z,992.11
2017-07-11T11:04:24.130Z,992.09
2017-07-11T11:05:24.154Z,992.06
2017-07-11T11:06:24.188Z,992.05
2017-07-11T11:07:24.220Z,992.07
2017-07-11T11:08:24.254Z,992.02
2017-07-11T11:09:24.278Z,992.03
2017-07-11T11:10:24.306Z,992.01
2017-07-11T11:11:24.339Z,991.98
2017-07-11T11:12:24.373Z,992.03
2017-07-11T11:13:24.397Z,992
2017-07-11T11:14:24.430Z,991.98
2017-07-11T11:15:24.462Z,992.03
2017-07-11T11:16:24.492Z,992.06
2017-07-11T11:17:24.520Z,991.99
2017-07-11T11:18:24.555Z,992
2017-07-11T11:19:24.582Z,991.98
2017-07-11T11:20:24.610Z,991.93
2017-07-11T11:21:24.645Z,991.94
2017-07-11T11:22:24.673Z,991.95
2017-07-11T11:23:24.704Z,991.92
2017-07-11T11:24:24.734Z,991.95
2017-07-11T11:25:24.762Z,991.95
2017-07-11T11:26:24.796Z,991.98
2017-07-11T11:27:24.825Z,991.91
2017-07-11T11:28:24.853Z,991.95
2017-07-11T11:29:24.886Z,991.94
2017-07-11T11:30:24.914Z,991.92
2017-07-11T11:31:24.944Z,991.92
2017-07-11T11:32:24.976Z,991.93
2017-07-11T11:33:25.005Z,991.96
2017-07-11T11:34:25.036Z,991.98
2017-07-11T11:35:25.067Z,991.98
2017-07-11T11:36:25.096Z,991.96
2017-07-11T11:37:25.129Z,991.95
2017-07-11T11:38:25.156Z,991.9
2017-07-11T11:39:25.191Z,991.94
2017-07-11T11:40:25.219Z,991.94
2017-07-11T11:41:25.247Z,991.86
2017-07-11T11:42:25.282Z,991.97
2017-07-11T11:43:25.310Z,991.85
2017-07-11T11:44:25.339Z,991.71
2017-07-11T11:45:25.364Z,991.7
2017-07-11T11:46:25.404Z,991.85
2017-07-11T11:47:25.433Z,991.85
2017-07-11T11:48:25.461Z,991.92
2017-07-11T11:49:25.490Z,991.91
2017-07-11T11:50:25.528Z,991.8
2017-07-11T11:51:25.557Z,991.88
2017-07-11T11:52:25.586Z,991.88
2017-07-11T11:53:25.618Z,991.71
2017-07-11T11:54:25.647Z,991.71
2017-07-11T11:55:25.684Z,991.75
2017-07-11T11:56:25.712Z,991.77
2017-07-11T11:57:25.743Z,991.78
2017-07-11T11:58:25.773Z,991.75
2017-07-11T11:59:25.807Z,991.73
2017-07-11T12:00:25.837Z,991.76
2017-07-11T12:01:25.872Z,991.89
2017-07-11T12:02:25.898Z,991.86
2017-07-11T12:03:25.930Z,991.83
2017-07-11T12:04:25.963Z,991.82
2017-07-11T12:05:25.991Z,991.91
2017-07-11T12:06:26.025Z,991.83
2017-07-11T12:07:26.049Z,991.72
2017-07-11T12:08:26.087Z,991.72
2017-07-11T12:09:26.119Z,991.77
2017-07-11T12:10:26.148Z,991.86
2017-07-11T12:11:26.176Z,991.74
2017-07-11T12:12:26.210Z,991.78
2017-07-11T12:13:26.242Z,991.76
2017-07-11T12:14:26.274Z,991.68
2017-07-11T12:15:26.311Z,991.68
2017-07-11T12:16:26.337Z,991.66
2017-07-11T12:17:26.371Z,991.63
2017-07-11T12:18:26.398Z,991.59
2017-07-11T12:19:26.427Z,991.55
2017-07-11T12:20:26.460Z,991.61
2017-07-11T12:21:26.492Z,991.62
2017-07-11T12:22:26.521Z,991.65
2017-07-11T12:23:26.555Z,991.67
2017-07-11T12:24:26.584Z,991.65
2017-07-11T12:25:26.616Z,991.63
2017-07-11T12:26:26.649Z,991.6
2017-07-11T12:27:26.682Z,991.63
2017-07-11T12:28:26.707Z,991.65
2017-07-11T12:29:26.744Z,991.67
2017-07-11T12:30:26.777Z,991.62
2017-07-11T12:31:26.808Z,991.57